Albuquerque International Sunport Airport
KABQ : now visible

Airfield :











YOU CAN JOIN US ON...

 
LOGIN :

Register | Disclaimer

   EN    FR    IT 

 









Legend :    VFR   Marginal VFR   IFR   Intensive IFR   Very Intensive IFR
Visi :
Ceiling :
>= 8 km
>= 3000ft
5 to 8 km
1000 to 3000 ft
1500m to 5 km
500 to 1000 ft
800 to 1500m
200 to 500 ft
< 800m
< 200 ft
Symbols :   Thunderstorms  Fog  Heavy snow  Heavy precipitations  Wind > 20 kt






- Airport Elevation : 5355 ft
- IATA code : ABQ


KABQ - Albuquerque International Sunport

CURRENT METAR :
  • 031352Z 00000KT 10SM CLR 18/12 A3028 RMK AO2 SLP185 T01830122

EXPIRED METARs :
  • 031252Z 35007KT 10SM FEW250 17/12 A3027 RMK AO2 SLP184 T01720117
  • 031152Z 01007KT 10SM FEW250 17/12 A3026 RMK AO2 SLP166 T01720117 10211 20172 50000

TAF KABQ
Valid from the 03 at 12:00 until the 04 at 12:00 UTC


031139Z 0312/0412 02006KT P6SM SKC
FM031800 26007KT P6SM SCT100
FM032300 31011KT P6SM VCTS BKN100CB
TEMPO 0323/0402 VRB20G33KT 6SM -SHRA BKN100
FM040200 09010G20KT P6SM SCT110
FM040700 09006KT P6SM FEW120
KZAB FIR / North America



MET'MAP, your aeronautical weather chart ! - Copyright ORBIFLY December 2007 - Disclaimer

ORBIFLY MET'MAP TEAM :

Programming & Development : Alexandra Zaïnal
Concept & original design : Baudouin d'Aumeries
Assistance for programming : Marc-Olivier Méhu
Technical & hardware support : Manuel Goepfert

Contact : metmap@orbifly.com




SOURCES & CREDITS :

   NOAA       Earth
Advisory